sensor_id;sensor_type;location;lat;lon;timestamp;P1;durP1;ratioP1;P2;durP2;ratioP2
37365;SDS011;23239;51.504;7.456;2023-09-08T00:00:00;7.9;;;4.9;;
37365;SDS011;23239;51.504;7.456;2023-09-08T00:01:00;7.9;;;4.9;;
37365;SDS011;23239;51.504;7.456;2023-09-08T00:02:00;7.5;;;4.5;;
37365;SDS011;23239;51.504;7.456;2023-09-08T00:03:00;7.5;;;4.5;;
37365;SDS011;23239;51.504;7.456;2023-09-08T00:04:00;7.5;;;4.5;;
37365;SDS011;23239;51.504;7.456;2023-09-08T00:05:00;7.5;;;4.5;;
37365;SDS011;23239;51.504;7.456;2023-09-08T00:06:00;7.5;;;4.5;;
37365;SDS011;23239;51.504;7.456;2023-09-08T00:07:00;6.5;;;4.7;;
37365;SDS011;23239;51.504;7.456;2023-09-08T00:08:00;6.5;;;4.7;;
37365;SDS011;23239;51.504;7.456;2023-09-08T00:09:02;6.5;;;4.7;;
37365;SDS011;23239;51.504;7.456;2023-09-08T00:10:00;6.5;;;4.7;;
37365;SDS011;23239;51.504;7.456;2023-09-08T00:11:00;6.5;;;4.7;;
37365;SDS011;23239;51.504;7.456;2023-09-08T00:12:00;5.8;;;4.6;;
37365;SDS011;23239;51.504;7.456;2023-09-08T00:13:00;5.8;;;4.6;;
37365;SDS011;23239;51.504;7.456;2023-09-08T00:14:00;5.8;;;4.6;;
37365;SDS011;23239;51.504;7.456;2023-09-08T00:15:00;5.8;;;4.6;;
37365;SDS011;23239;51.504;7.456;2023-09-08T00:16:00;5.8;;;4.6;;
37365;SDS011;23239;51.504;7.456;2023-09-08T00:17:00;8.3;;;5.0;;
37365;SDS011;23239;51.504;7.456;2023-09-08T00:18:00;8.3;;;5.0;;
37365;SDS011;23239;51.504;7.456;2023-09-08T00:19:00;8.3;;;5.0;;
37365;SDS011;23239;51.504;7.456;2023-09-08T00:20:00;8.3;;;5.0;;
37365;SDS011;23239;51.504;7.456;2023-09-08T00:21:00;8.3;;;5.0;;
37365;SDS011;23239;51.504;7.456;2023-09-08T00:22:00;7.3;;;5.2;;
37365;SDS011;23239;51.504;7.456;2023-09-08T00:23:00;7.3;;;5.2;;
37365;SDS011;23239;51.504;7.456;2023-09-08T00:24:00;7.3;;;5.2;;
37365;SDS011;23239;51.504;7.456;2023-09-08T00:25:00;7.3;;;5.2;;
37365;SDS011;23239;51.504;7.456;2023-09-08T00:26:00;7.3;;;5.2;;
37365;SDS011;23239;51.504;7.456;2023-09-08T00:27:00;7.3;;;5.1;;
37365;SDS011;23239;51.504;7.456;2023-09-08T00:28:00;7.3;;;5.1;;
37365;SDS011;23239;51.504;7.456;2023-09-08T00:29:00;7.3;;;5.1;;
37365;SDS011;23239;51.504;7.456;2023-09-08T00:30:01;7.3;;;5.1;;
37365;SDS011;23239;51.504;7.456;2023-09-08T00:31:01;7.3;;;5.1;;
37365;SDS011;23239;51.504;7.456;2023-09-08T00:32:00;5.7;;;4.9;;
37365;SDS011;23239;51.504;7.456;2023-09-08T00:33:00;5.7;;;4.9;;
37365;SDS011;23239;51.504;7.456;2023-09-08T00:34:00;5.7;;;4.9;;
37365;SDS011;23239;51.504;7.456;2023-09-08T00:35:00;5.7;;;4.9;;
37365;SDS011;23239;51.504;7.456;2023-09-08T00:36:00;5.7;;;4.9;;
37365;SDS011;23239;51.504;7.456;2023-09-08T00:37:00;6.6;;;4.7;;
37365;SDS011;23239;51.504;7.456;2023-09-08T00:38:00;6.6;;;4.7;;
37365;SDS011;23239;51.504;7.456;2023-09-08T00:39:00;6.6;;;4.7;;
37365;SDS011;23239;51.504;7.456;2023-09-08T00:40:00;6.6;;;4.7;;
37365;SDS011;23239;51.504;7.456;2023-09-08T00:41:00;6.6;;;4.7;;
37365;SDS011;23239;51.504;7.456;2023-09-08T00:42:00;8.6;;;5.0;;
37365;SDS011;23239;51.504;7.456;2023-09-08T00:43:00;8.6;;;5.0;;
37365;SDS011;23239;51.504;7.456;2023-09-08T00:44:00;8.6;;;5.0;;
37365;SDS011;23239;51.504;7.456;2023-09-08T00:45:00;8.6;;;5.0;;
37365;SDS011;23239;51.504;7.456;2023-09-08T00:46:00;8.6;;;5.0;;
37365;SDS011;23239;51.504;7.456;2023-09-08T00:47:00;8.0;;;5.1;;
37365;SDS011;23239;51.504;7.456;2023-09-08T00:48:00;8.0;;;5.1;;
37365;SDS011;23239;51.504;7.456;2023-09-08T00:49:01;8.0;;;5.1;;
37365;SDS011;23239;51.504;7.456;2023-09-08T00:50:00;8.0;;;5.1;;
37365;SDS011;23239;51.504;7.456;2023-09-08T00:51:00;8.0;;;5.1;;
37365;SDS011;23239;51.504;7.456;2023-09-08T00:52:00;6.1;;;4.8;;
37365;SDS011;23239;51.504;7.456;2023-09-08T00:53:00;6.1;;;4.8;;
37365;SDS011;23239;51.504;7.456;2023-09-08T00:54:00;6.1;;;4.8;;
37365;SDS011;23239;51.504;7.456;2023-09-08T00:55:00;6.1;;;4.8;;
37365;SDS011;23239;51.504;7.456;2023-09-08T00:56:00;6.1;;;4.8;;
37365;SDS011;23239;51.504;7.456;2023-09-08T00:57:01;6.6;;;5.0;;
37365;SDS011;23239;51.504;7.456;2023-09-08T00:58:00;6.6;;;5.0;;
37365;SDS011;23239;51.504;7.456;2023-09-08T00:59:00;6.6;;;5.0;;
37365;SDS011;23239;51.504;7.456;2023-09-08T01:00:00;6.6;;;5.0;;
37365;SDS011;23239;51.504;7.456;2023-09-08T01:01:00;6.6;;;5.0;;
37365;SDS011;23239;51.504;7.456;2023-09-08T01:02:00;7.1;;;5.1;;
37365;SDS011;23239;51.504;7.456;2023-09-08T01:03:00;7.1;;;5.1;;
37365;SDS011;23239;51.504;7.456;2023-09-08T01:04:00;7.1;;;5.1;;
37365;SDS011;23239;51.504;7.456;2023-09-08T01:05:00;7.1;;;5.1;;
37365;SDS011;23239;51.504;7.456;2023-09-08T01:06:00;7.1;;;5.1;;
37365;SDS011;23239;51.504;7.456;2023-09-08T01:07:00;8.0;;;5.2;;
37365;SDS011;23239;51.504;7.456;2023-09-08T01:08:00;8.0;;;5.2;;
37365;SDS011;23239;51.504;7.456;2023-09-08T01:09:00;8.0;;;5.2;;
37365;SDS011;23239;51.504;7.456;2023-09-08T01:10:00;8.0;;;5.2;;
37365;SDS011;23239;51.504;7.456;2023-09-08T01:11:00;8.0;;;5.2;;
37365;SDS011;23239;51.504;7.456;2023-09-08T01:12:02;6.9;;;5.0;;
37365;SDS011;23239;51.504;7.456;2023-09-08T01:13:00;6.9;;;5.0;;
37365;SDS011;23239;51.504;7.456;2023-09-08T01:14:00;6.9;;;5.0;;
37365;SDS011;23239;51.504;7.456;2023-09-08T01:15:00;6.9;;;5.0;;
37365;SDS011;23239;51.504;7.456;2023-09-08T01:16:00;6.9;;;5.0;;
37365;SDS011;23239;51.504;7.456;2023-09-08T01:17:00;7.1;;;5.3;;
37365;SDS011;23239;51.504;7.456;2023-09-08T01:18:00;7.1;;;5.3;;
37365;SDS011;23239;51.504;7.456;2023-09-08T01:19:00;7.1;;;5.3;;
37365;SDS011;23239;51.504;7.456;2023-09-08T01:20:01;7.1;;;5.3;;
37365;SDS011;23239;51.504;7.456;2023-09-08T01:21:06;7.1;;;5.3;;
37365;SDS011;23239;51.504;7.456;2023-09-08T01:22:07;8.1;;;4.9;;
37365;SDS011;23239;51.504;7.456;2023-09-08T01:23:01;8.1;;;4.9;;
37365;SDS011;23239;51.504;7.456;2023-09-08T01:24:12;8.1;;;4.9;;
37365;SDS011;23239;51.504;7.456;2023-09-08T01:25:04;8.1;;;4.9;;
37365;SDS011;23239;51.504;7.456;2023-09-08T01:26:01;8.1;;;4.9;;
37365;SDS011;23239;51.504;7.456;2023-09-08T01:27:00;7.1;;;5.2;;
37365;SDS011;23239;51.504;7.456;2023-09-08T01:28:00;7.1;;;5.2;;
37365;SDS011;23239;51.504;7.456;2023-09-08T01:29:00;7.1;;;5.2;;
37365;SDS011;23239;51.504;7.456;2023-09-08T01:30:01;7.1;;;5.2;;
37365;SDS011;23239;51.504;7.456;2023-09-08T01:31:00;7.1;;;5.2;;
37365;SDS011;23239;51.504;7.456;2023-09-08T01:32:00;7.6;;;5.1;;
37365;SDS011;23239;51.504;7.456;2023-09-08T01:33:00;7.6;;;5.1;;
37365;SDS011;23239;51.504;7.456;2023-09-08T01:34:00;7.6;;;5.1;;
37365;SDS011;23239;51.504;7.456;2023-09-08T01:35:00;7.6;;;5.1;;
37365;SDS011;23239;51.504;7.456;2023-09-08T01:36:00;7.6;;;5.1;;
37365;SDS011;23239;51.504;7.456;2023-09-08T01:37:00;7.4;;;5.5;;
37365;SDS011;23239;51.504;7.456;2023-09-08T01:38:00;7.4;;;5.5;;
37365;SDS011;23239;51.504;7.456;2023-09-08T01:39:00;7.4;;;5.5;;
37365;SDS011;23239;51.504;7.456;2023-09-08T01:40:00;7.4;;;5.5;;
37365;SDS011;23239;51.504;7.456;2023-09-08T01:41:00;7.4;;;5.5;;
37365;SDS011;23239;51.504;7.456;2023-09-08T01:42:00;6.8;;;5.5;;
37365;SDS011;23239;51.504;7.456;2023-09-08T01:43:00;6.8;;;5.5;;
37365;SDS011;23239;51.504;7.456;2023-09-08T01:44:00;6.8;;;5.5;;
37365;SDS011;23239;51.504;7.456;2023-09-08T01:45:00;6.8;;;5.5;;
37365;SDS011;23239;51.504;7.456;2023-09-08T01:46:00;6.8;;;5.5;;
37365;SDS011;23239;51.504;7.456;2023-09-08T01:47:00;7.3;;;5.3;;
37365;SDS011;23239;51.504;7.456;2023-09-08T01:48:00;7.3;;;5.3;;
37365;SDS011;23239;51.504;7.456;2023-09-08T01:49:00;7.3;;;5.3;;
37365;SDS011;23239;51.504;7.456;2023-09-08T01:50:00;7.3;;;5.3;;
37365;SDS011;23239;51.504;7.456;2023-09-08T01:51:00;7.3;;;5.3;;
37365;SDS011;23239;51.504;7.456;2023-09-08T01:52:00;7.3;;;5.2;;
37365;SDS011;23239;51.504;7.456;2023-09-08T01:53:00;7.3;;;5.2;;
37365;SDS011;23239;51.504;7.456;2023-09-08T01:54:00;7.3;;;5.2;;
37365;SDS011;23239;51.504;7.456;2023-09-08T01:55:00;7.3;;;5.2;;
37365;SDS011;23239;51.504;7.456;2023-09-08T01:56:00;7.3;;;5.2;;
37365;SDS011;23239;51.504;7.456;2023-09-08T01:57:00;6.5;;;5.1;;
37365;SDS011;23239;51.504;7.456;2023-09-08T01:58:01;6.5;;;5.1;;
37365;SDS011;23239;51.504;7.456;2023-09-08T01:59:00;6.5;;;5.1;;
37365;SDS011;23239;51.504;7.456;2023-09-08T02:00:00;6.5;;;5.1;;
37365;SDS011;23239;51.504;7.456;2023-09-08T02:01:00;6.5;;;5.1;;
37365;SDS011;23239;51.504;7.456;2023-09-08T02:02:00;6.8;;;5.0;;
37365;SDS011;23239;51.504;7.456;2023-09-08T02:03:00;6.8;;;5.0;;
37365;SDS011;23239;51.504;7.456;2023-09-08T02:04:00;6.8;;;5.0;;
37365;SDS011;23239;51.504;7.456;2023-09-08T02:05:00;6.8;;;5.0;;
37365;SDS011;23239;51.504;7.456;2023-09-08T02:06:00;6.8;;;5.0;;
37365;SDS011;23239;51.504;7.456;2023-09-08T02:07:00;5.6;;;4.9;;
37365;SDS011;23239;51.504;7.456;2023-09-08T02:08:00;5.6;;;4.9;;
37365;SDS011;23239;51.504;7.456;2023-09-08T02:09:00;5.6;;;4.9;;
37365;SDS011;23239;51.504;7.456;2023-09-08T02:10:00;5.6;;;4.9;;
37365;SDS011;23239;51.504;7.456;2023-09-08T02:11:00;5.6;;;4.9;;
37365;SDS011;23239;51.504;7.456;2023-09-08T02:12:00;8.6;;;5.2;;
37365;SDS011;23239;51.504;7.456;2023-09-08T02:13:00;8.6;;;5.2;;
37365;SDS011;23239;51.504;7.456;2023-09-08T02:14:00;8.6;;;5.2;;
37365;SDS011;23239;51.504;7.456;2023-09-08T02:15:00;8.6;;;5.2;;
37365;SDS011;23239;51.504;7.456;2023-09-08T02:16:00;8.6;;;5.2;;
37365;SDS011;23239;51.504;7.456;2023-09-08T02:17:00;6.4;;;5.2;;
37365;SDS011;23239;51.504;7.456;2023-09-08T02:18:00;6.4;;;5.2;;
37365;SDS011;23239;51.504;7.456;2023-09-08T02:19:00;6.4;;;5.2;;
37365;SDS011;23239;51.504;7.456;2023-09-08T02:20:00;6.4;;;5.2;;
37365;SDS011;23239;51.504;7.456;2023-09-08T02:21:00;6.4;;;5.2;;
37365;SDS011;23239;51.504;7.456;2023-09-08T02:22:00;6.9;;;5.2;;
37365;SDS011;23239;51.504;7.456;2023-09-08T02:23:04;6.9;;;5.2;;
37365;SDS011;23239;51.504;7.456;2023-09-08T02:24:00;6.9;;;5.2;;
37365;SDS011;23239;51.504;7.456;2023-09-08T02:25:00;6.9;;;5.2;;
37365;SDS011;23239;51.504;7.456;2023-09-08T02:26:00;6.9;;;5.2;;
37365;SDS011;23239;51.504;7.456;2023-09-08T02:27:00;6.3;;;5.2;;
37365;SDS011;23239;51.504;7.456;2023-09-08T02:28:00;6.3;;;5.2;;
37365;SDS011;23239;51.504;7.456;2023-09-08T02:29:00;6.3;;;5.2;;
37365;SDS011;23239;51.504;7.456;2023-09-08T02:30:00;6.3;;;5.2;;
37365;SDS011;23239;51.504;7.456;2023-09-08T02:31:00;6.3;;;5.2;;
37365;SDS011;23239;51.504;7.456;2023-09-08T02:32:00;6.4;;;5.0;;
37365;SDS011;23239;51.504;7.456;2023-09-08T02:33:00;6.4;;;5.0;;
37365;SDS011;23239;51.504;7.456;2023-09-08T02:34:00;6.4;;;5.0;;
37365;SDS011;23239;51.504;7.456;2023-09-08T02:35:00;6.4;;;5.0;;
37365;SDS011;23239;51.504;7.456;2023-09-08T02:36:02;6.4;;;5.0;;
37365;SDS011;23239;51.504;7.456;2023-09-08T02:37:00;9.0;;;5.3;;
37365;SDS011;23239;51.504;7.456;2023-09-08T02:38:00;9.0;;;5.3;;
37365;SDS011;23239;51.504;7.456;2023-09-08T02:39:00;9.0;;;5.3;;
37365;SDS011;23239;51.504;7.456;2023-09-08T02:40:00;9.0;;;5.3;;
37365;SDS011;23239;51.504;7.456;2023-09-08T02:41:00;9.0;;;5.3;;
37365;SDS011;23239;51.504;7.456;2023-09-08T02:42:00;6.5;;;5.1;;
37365;SDS011;23239;51.504;7.456;2023-09-08T02:43:00;6.5;;;5.1;;
37365;SDS011;23239;51.504;7.456;2023-09-08T02:44:00;6.5;;;5.1;;
37365;SDS011;23239;51.504;7.456;2023-09-08T02:45:00;6.5;;;5.1;;
37365;SDS011;23239;51.504;7.456;2023-09-08T02:46:00;6.5;;;5.1;;
37365;SDS011;23239;51.504;7.456;2023-09-08T02:47:00;7.4;;;5.0;;
37365;SDS011;23239;51.504;7.456;2023-09-08T02:48:00;7.4;;;5.0;;
37365;SDS011;23239;51.504;7.456;2023-09-08T02:49:00;7.4;;;5.0;;
37365;SDS011;23239;51.504;7.456;2023-09-08T02:50:00;7.4;;;5.0;;
37365;SDS011;23239;51.504;7.456;2023-09-08T02:51:00;7.4;;;5.0;;
37365;SDS011;23239;51.504;7.456;2023-09-08T02:52:00;8.6;;;5.2;;
37365;SDS011;23239;51.504;7.456;2023-09-08T02:53:00;8.6;;;5.2;;
37365;SDS011;23239;51.504;7.456;2023-09-08T02:54:00;8.6;;;5.2;;
37365;SDS011;23239;51.504;7.456;2023-09-08T02:55:00;8.6;;;5.2;;
37365;SDS011;23239;51.504;7.456;2023-09-08T02:56:00;8.6;;;5.2;;
37365;SDS011;23239;51.504;7.456;2023-09-08T02:57:00;7.3;;;4.9;;
37365;SDS011;23239;51.504;7.456;2023-09-08T02:58:00;7.3;;;4.9;;
37365;SDS011;23239;51.504;7.456;2023-09-08T02:59:00;7.3;;;4.9;;
37365;SDS011;23239;51.504;7.456;2023-09-08T03:00:00;7.3;;;4.9;;
37365;SDS011;23239;51.504;7.456;2023-09-08T03:01:09;7.3;;;4.9;;
37365;SDS011;23239;51.504;7.456;2023-09-08T03:02:00;7.1;;;4.9;;
37365;SDS011;23239;51.504;7.456;2023-09-08T03:03:00;7.1;;;4.9;;
37365;SDS011;23239;51.504;7.456;2023-09-08T03:04:00;7.1;;;4.9;;
37365;SDS011;23239;51.504;7.456;2023-09-08T03:05:00;7.1;;;4.9;;
37365;SDS011;23239;51.504;7.456;2023-09-08T03:06:00;7.1;;;4.9;;
37365;SDS011;23239;51.504;7.456;2023-09-08T03:07:00;7.5;;;5.3;;
37365;SDS011;23239;51.504;7.456;2023-09-08T03:08:00;7.5;;;5.3;;
37365;SDS011;23239;51.504;7.456;2023-09-08T03:09:00;7.5;;;5.3;;
37365;SDS011;23239;51.504;7.456;2023-09-08T03:10:00;7.5;;;5.3;;
37365;SDS011;23239;51.504;7.456;2023-09-08T03:11:00;7.5;;;5.3;;
37365;SDS011;23239;51.504;7.456;2023-09-08T03:12:00;6.1;;;4.5;;
37365;SDS011;23239;51.504;7.456;2023-09-08T03:13:00;6.1;;;4.5;;
37365;SDS011;23239;51.504;7.456;2023-09-08T03:14:00;6.1;;;4.5;;
37365;SDS011;23239;51.504;7.456;2023-09-08T03:15:00;6.1;;;4.5;;
37365;SDS011;23239;51.504;7.456;2023-09-08T03:16:02;6.1;;;4.5;;
37365;SDS011;23239;51.504;7.456;2023-09-08T03:17:00;8.1;;;4.8;;
37365;SDS011;23239;51.504;7.456;2023-09-08T03:18:00;8.1;;;4.8;;
37365;SDS011;23239;51.504;7.456;2023-09-08T03:19:00;8.1;;;4.8;;
37365;SDS011;23239;51.504;7.456;2023-09-08T03:20:00;8.1;;;4.8;;
37365;SDS011;23239;51.504;7.456;2023-09-08T03:21:00;8.1;;;4.8;;
37365;SDS011;23239;51.504;7.456;2023-09-08T03:22:00;6.5;;;4.8;;
37365;SDS011;23239;51.504;7.456;2023-09-08T03:23:00;6.5;;;4.8;;
37365;SDS011;23239;51.504;7.456;2023-09-08T03:24:00;6.5;;;4.8;;
37365;SDS011;23239;51.504;7.456;2023-09-08T03:25:00;6.5;;;4.8;;
37365;SDS011;23239;51.504;7.456;2023-09-08T03:26:00;6.5;;;4.8;;
37365;SDS011;23239;51.504;7.456;2023-09-08T03:27:00;6.2;;;5.1;;
37365;SDS011;23239;51.504;7.456;2023-09-08T03:28:00;6.2;;;5.1;;
37365;SDS011;23239;51.504;7.456;2023-09-08T03:29:00;6.2;;;5.1;;
37365;SDS011;23239;51.504;7.456;2023-09-08T03:30:00;6.2;;;5.1;;
37365;SDS011;23239;51.504;7.456;2023-09-08T03:31:00;6.2;;;5.1;;
37365;SDS011;23239;51.504;7.456;2023-09-08T03:32:00;7.5;;;5.2;;
37365;SDS011;23239;51.504;7.456;2023-09-08T03:33:00;7.5;;;5.2;;
37365;SDS011;23239;51.504;7.456;2023-09-08T03:34:00;7.5;;;5.2;;
37365;SDS011;23239;51.504;7.456;2023-09-08T03:35:00;7.5;;;5.2;;
37365;SDS011;23239;51.504;7.456;2023-09-08T03:36:01;7.5;;;5.2;;
37365;SDS011;23239;51.504;7.456;2023-09-08T03:37:00;6.7;;;5.1;;
37365;SDS011;23239;51.504;7.456;2023-09-08T03:38:00;6.7;;;5.1;;
37365;SDS011;23239;51.504;7.456;2023-09-08T03:39:00;6.7;;;5.1;;
37365;SDS011;23239;51.504;7.456;2023-09-08T03:40:00;6.7;;;5.1;;
37365;SDS011;23239;51.504;7.456;2023-09-08T03:41:00;6.7;;;5.1;;
37365;SDS011;23239;51.504;7.456;2023-09-08T03:42:00;6.9;;;5.4;;
37365;SDS011;23239;51.504;7.456;2023-09-08T03:43:00;6.9;;;5.4;;
37365;SDS011;23239;51.504;7.456;2023-09-08T03:44:00;6.9;;;5.4;;
37365;SDS011;23239;51.504;7.456;2023-09-08T03:45:00;6.9;;;5.4;;
37365;SDS011;23239;51.504;7.456;2023-09-08T03:46:00;6.9;;;5.4;;
37365;SDS011;23239;51.504;7.456;2023-09-08T03:47:00;7.7;;;5.0;;
37365;SDS011;23239;51.504;7.456;2023-09-08T03:48:00;7.7;;;5.0;;
37365;SDS011;23239;51.504;7.456;2023-09-08T03:49:00;7.7;;;5.0;;
37365;SDS011;23239;51.504;7.456;2023-09-08T03:50:00;7.7;;;5.0;;
37365;SDS011;23239;51.504;7.456;2023-09-08T03:51:00;7.7;;;5.0;;
37365;SDS011;23239;51.504;7.456;2023-09-08T03:52:00;6.6;;;5.3;;
37365;SDS011;23239;51.504;7.456;2023-09-08T03:53:00;6.6;;;5.3;;
37365;SDS011;23239;51.504;7.456;2023-09-08T03:54:00;6.6;;;5.3;;
37365;SDS011;23239;51.504;7.456;2023-09-08T03:55:00;6.6;;;5.3;;
37365;SDS011;23239;51.504;7.456;2023-09-08T03:56:00;6.6;;;5.3;;
37365;SDS011;23239;51.504;7.456;2023-09-08T03:57:00;6.9;;;5.0;;
37365;SDS011;23239;51.504;7.456;2023-09-08T03:58:00;6.9;;;5.0;;
37365;SDS011;23239;51.504;7.456;2023-09-08T03:59:00;6.9;;;5.0;;
37365;SDS011;23239;51.504;7.456;2023-09-08T04:00:00;6.9;;;5.0;;
37365;SDS011;23239;51.504;7.456;2023-09-08T04:01:00;6.9;;;5.0;;
37365;SDS011;23239;51.504;7.456;2023-09-08T04:02:00;9.0;;;5.1;;
37365;SDS011;23239;51.504;7.456;2023-09-08T04:03:00;9.0;;;5.1;;
37365;SDS011;23239;51.504;7.456;2023-09-08T04:04:00;9.0;;;5.1;;
37365;SDS011;23239;51.504;7.456;2023-09-08T04:05:00;9.0;;;5.1;;
37365;SDS011;23239;51.504;7.456;2023-09-08T04:06:00;9.0;;;5.1;;
37365;SDS011;23239;51.504;7.456;2023-09-08T04:07:00;6.9;;;5.2;;
37365;SDS011;23239;51.504;7.456;2023-09-08T04:08:00;6.9;;;5.2;;
37365;SDS011;23239;51.504;7.456;2023-09-08T04:09:00;6.9;;;5.2;;
37365;SDS011;23239;51.504;7.456;2023-09-08T04:10:00;6.9;;;5.2;;
37365;SDS011;23239;51.504;7.456;2023-09-08T04:11:00;6.9;;;5.2;;
37365;SDS011;23239;51.504;7.456;2023-09-08T04:12:00;7.3;;;5.1;;
37365;SDS011;23239;51.504;7.456;2023-09-08T04:13:00;7.3;;;5.1;;
37365;SDS011;23239;51.504;7.456;2023-09-08T04:14:00;7.3;;;5.1;;
37365;SDS011;23239;51.504;7.456;2023-09-08T04:15:00;7.3;;;5.1;;
37365;SDS011;23239;51.504;7.456;2023-09-08T04:16:00;7.3;;;5.1;;
37365;SDS011;23239;51.504;7.456;2023-09-08T04:17:00;7.0;;;5.3;;
37365;SDS011;23239;51.504;7.456;2023-09-08T04:18:00;7.0;;;5.3;;
37365;SDS011;23239;51.504;7.456;2023-09-08T04:19:00;7.0;;;5.3;;
37365;SDS011;23239;51.504;7.456;2023-09-08T04:20:00;7.0;;;5.3;;
37365;SDS011;23239;51.504;7.456;2023-09-08T04:21:01;7.0;;;5.3;;
37365;SDS011;23239;51.504;7.456;2023-09-08T04:22:00;7.6;;;5.2;;
37365;SDS011;23239;51.504;7.456;2023-09-08T04:23:00;7.6;;;5.2;;
37365;SDS011;23239;51.504;7.456;2023-09-08T04:24:00;7.6;;;5.2;;
37365;SDS011;23239;51.504;7.456;2023-09-08T04:25:00;7.6;;;5.2;;
37365;SDS011;23239;51.504;7.456;2023-09-08T04:26:00;7.6;;;5.2;;
37365;SDS011;23239;51.504;7.456;2023-09-08T04:27:00;6.8;;;5.0;;
37365;SDS011;23239;51.504;7.456;2023-09-08T04:28:00;6.8;;;5.0;;
37365;SDS011;23239;51.504;7.456;2023-09-08T04:29:00;6.8;;;5.0;;
37365;SDS011;23239;51.504;7.456;2023-09-08T04:30:00;6.8;;;5.0;;
37365;SDS011;23239;51.504;7.456;2023-09-08T04:31:00;6.8;;;5.0;;
37365;SDS011;23239;51.504;7.456;2023-09-08T04:32:00;8.6;;;5.4;;
37365;SDS011;23239;51.504;7.456;2023-09-08T04:33:00;8.6;;;5.4;;
37365;SDS011;23239;51.504;7.456;2023-09-08T04:34:00;8.6;;;5.4;;
37365;SDS011;23239;51.504;7.456;2023-09-08T04:35:00;8.6;;;5.4;;
37365;SDS011;23239;51.504;7.456;2023-09-08T04:36:00;8.6;;;5.4;;
37365;SDS011;23239;51.504;7.456;2023-09-08T04:37:00;7.3;;;5.6;;
37365;SDS011;23239;51.504;7.456;2023-09-08T04:38:00;7.3;;;5.6;;
37365;SDS011;23239;51.504;7.456;2023-09-08T04:39:00;7.3;;;5.6;;
37365;SDS011;23239;51.504;7.456;2023-09-08T04:40:00;7.3;;;5.6;;
37365;SDS011;23239;51.504;7.456;2023-09-08T04:41:00;7.3;;;5.6;;
37365;SDS011;23239;51.504;7.456;2023-09-08T04:42:00;8.4;;;4.5;;
37365;SDS011;23239;51.504;7.456;2023-09-08T04:43:00;8.4;;;4.5;;
37365;SDS011;23239;51.504;7.456;2023-09-08T04:44:00;8.4;;;4.5;;
37365;SDS011;23239;51.504;7.456;2023-09-08T04:45:00;8.4;;;4.5;;
37365;SDS011;23239;51.504;7.456;2023-09-08T04:46:00;8.4;;;4.5;;
37365;SDS011;23239;51.504;7.456;2023-09-08T04:47:00;6.8;;;5.3;;
37365;SDS011;23239;51.504;7.456;2023-09-08T04:48:00;6.8;;;5.3;;
37365;SDS011;23239;51.504;7.456;2023-09-08T04:49:00;6.8;;;5.3;;
37365;SDS011;23239;51.504;7.456;2023-09-08T04:50:00;6.8;;;5.3;;
37365;SDS011;23239;51.504;7.456;2023-09-08T04:51:00;6.8;;;5.3;;
37365;SDS011;23239;51.504;7.456;2023-09-08T04:52:00;6.8;;;4.8;;
37365;SDS011;23239;51.504;7.456;2023-09-08T04:53:00;6.8;;;4.8;;
37365;SDS011;23239;51.504;7.456;2023-09-08T04:54:01;6.8;;;4.8;;
37365;SDS011;23239;51.504;7.456;2023-09-08T04:55:00;6.8;;;4.8;;
37365;SDS011;23239;51.504;7.456;2023-09-08T04:56:00;6.8;;;4.8;;
37365;SDS011;23239;51.504;7.456;2023-09-08T04:57:00;6.8;;;5.1;;
37365;SDS011;23239;51.504;7.456;2023-09-08T04:58:00;6.8;;;5.1;;
37365;SDS011;23239;51.504;7.456;2023-09-08T04:59:00;6.8;;;5.1;;
37365;SDS011;23239;51.504;7.456;2023-09-08T05:00:00;6.8;;;5.1;;
37365;SDS011;23239;51.504;7.456;2023-09-08T05:01:00;6.8;;;5.1;;
37365;SDS011;23239;51.504;7.456;2023-09-08T05:02:00;8.1;;;4.7;;
37365;SDS011;23239;51.504;7.456;2023-09-08T05:03:00;8.1;;;4.7;;
37365;SDS011;23239;51.504;7.456;2023-09-08T05:04:00;8.1;;;4.7;;
37365;SDS011;23239;51.504;7.456;2023-09-08T05:05:00;8.1;;;4.7;;
37365;SDS011;23239;51.504;7.456;2023-09-08T05:06:00;8.1;;;4.7;;
37365;SDS011;23239;51.504;7.456;2023-09-08T05:07:00;7.0;;;4.6;;
37365;SDS011;23239;51.504;7.456;2023-09-08T05:08:00;7.0;;;4.6;;
37365;SDS011;23239;51.504;7.456;2023-09-08T05:09:00;7.0;;;4.6;;
37365;SDS011;23239;51.504;7.456;2023-09-08T05:10:00;7.0;;;4.6;;
37365;SDS011;23239;51.504;7.456;2023-09-08T05:11:00;7.0;;;4.6;;
37365;SDS011;23239;51.504;7.456;2023-09-08T05:12:00;7.8;;;4.8;;
37365;SDS011;23239;51.504;7.456;2023-09-08T05:13:00;7.8;;;4.8;;
37365;SDS011;23239;51.504;7.456;2023-09-08T05:14:00;7.8;;;4.8;;
37365;SDS011;23239;51.504;7.456;2023-09-08T05:15:00;7.8;;;4.8;;
37365;SDS011;23239;51.504;7.456;2023-09-08T05:16:00;7.8;;;4.8;;
37365;SDS011;23239;51.504;7.456;2023-09-08T05:17:00;8.5;;;5.1;;
37365;SDS011;23239;51.504;7.456;2023-09-08T05:18:00;8.5;;;5.1;;
37365;SDS011;23239;51.504;7.456;2023-09-08T05:19:00;8.5;;;5.1;;
37365;SDS011;23239;51.504;7.456;2023-09-08T05:20:00;8.5;;;5.1;;
37365;SDS011;23239;51.504;7.456;2023-09-08T05:21:00;8.5;;;5.1;;
37365;SDS011;23239;51.504;7.456;2023-09-08T05:22:00;6.7;;;5.0;;
37365;SDS011;23239;51.504;7.456;2023-09-08T05:23:00;6.7;;;5.0;;
37365;SDS011;23239;51.504;7.456;2023-09-08T05:24:01;6.7;;;5.0;;
37365;SDS011;23239;51.504;7.456;2023-09-08T05:25:00;6.7;;;5.0;;
37365;SDS011;23239;51.504;7.456;2023-09-08T05:26:00;6.7;;;5.0;;
37365;SDS011;23239;51.504;7.456;2023-09-08T05:27:00;8.2;;;4.8;;
37365;SDS011;23239;51.504;7.456;2023-09-08T05:28:00;8.2;;;4.8;;
37365;SDS011;23239;51.504;7.456;2023-09-08T05:29:00;8.2;;;4.8;;
37365;SDS011;23239;51.504;7.456;2023-09-08T05:30:00;8.2;;;4.8;;
37365;SDS011;23239;51.504;7.456;2023-09-08T05:31:00;8.2;;;4.8;;
37365;SDS011;23239;51.504;7.456;2023-09-08T05:32:00;6.6;;;4.8;;
37365;SDS011;23239;51.504;7.456;2023-09-08T05:33:00;6.6;;;4.8;;
37365;SDS011;23239;51.504;7.456;2023-09-08T05:34:00;6.6;;;4.8;;
37365;SDS011;23239;51.504;7.456;2023-09-08T05:35:00;6.6;;;4.8;;
37365;SDS011;23239;51.504;7.456;2023-09-08T05:36:00;6.6;;;4.8;;
37365;SDS011;23239;51.504;7.456;2023-09-08T05:37:00;8.9;;;5.4;;
37365;SDS011;23239;51.504;7.456;2023-09-08T05:38:00;8.9;;;5.4;;
37365;SDS011;23239;51.504;7.456;2023-09-08T05:39:00;8.9;;;5.4;;
37365;SDS011;23239;51.504;7.456;2023-09-08T05:40:00;8.9;;;5.4;;
37365;SDS011;23239;51.504;7.456;2023-09-08T05:41:00;8.9;;;5.4;;
37365;SDS011;23239;51.504;7.456;2023-09-08T05:42:00;6.4;;;4.9;;
37365;SDS011;23239;51.504;7.456;2023-09-08T05:43:00;6.4;;;4.9;;
37365;SDS011;23239;51.504;7.456;2023-09-08T05:44:00;6.4;;;4.9;;
37365;SDS011;23239;51.504;7.456;2023-09-08T05:45:00;6.4;;;4.9;;
37365;SDS011;23239;51.504;7.456;2023-09-08T05:46:00;6.4;;;4.9;;
37365;SDS011;23239;51.504;7.456;2023-09-08T05:47:00;6.9;;;4.9;;
37365;SDS011;23239;51.504;7.456;2023-09-08T05:48:00;6.9;;;4.9;;
37365;SDS011;23239;51.504;7.456;2023-09-08T05:49:00;6.9;;;4.9;;
37365;SDS011;23239;51.504;7.456;2023-09-08T05:50:00;6.9;;;4.9;;
37365;SDS011;23239;51.504;7.456;2023-09-08T05:51:00;6.9;;;4.9;;
37365;SDS011;23239;51.504;7.456;2023-09-08T05:52:00;8.9;;;4.7;;
37365;SDS011;23239;51.504;7.456;2023-09-08T05:53:00;8.9;;;4.7;;
37365;SDS011;23239;51.504;7.456;2023-09-08T05:54:00;8.9;;;4.7;;
37365;SDS011;23239;51.504;7.456;2023-09-08T05:55:00;8.9;;;4.7;;
37365;SDS011;23239;51.504;7.456;2023-09-08T05:56:00;8.9;;;4.7;;
37365;SDS011;23239;51.504;7.456;2023-09-08T05:57:00;9.0;;;4.8;;
37365;SDS011;23239;51.504;7.456;2023-09-08T05:58:00;9.0;;;4.8;;
37365;SDS011;23239;51.504;7.456;2023-09-08T05:59:00;9.0;;;4.8;;
37365;SDS011;23239;51.504;7.456;2023-09-08T06:00:00;9.0;;;4.8;;
37365;SDS011;23239;51.504;7.456;2023-09-08T06:01:00;9.0;;;4.8;;
37365;SDS011;23239;51.504;7.456;2023-09-08T06:02:00;6.2;;;4.5;;
37365;SDS011;23239;51.504;7.456;2023-09-08T06:03:00;6.2;;;4.5;;
37365;SDS011;23239;51.504;7.456;2023-09-08T06:04:00;6.2;;;4.5;;
37365;SDS011;23239;51.504;7.456;2023-09-08T06:05:00;6.2;;;4.5;;
37365;SDS011;23239;51.504;7.456;2023-09-08T06:06:00;6.2;;;4.5;;
37365;SDS011;23239;51.504;7.456;2023-09-08T06:07:00;6.8;;;4.8;;
37365;SDS011;23239;51.504;7.456;2023-09-08T06:08:00;6.8;;;4.8;;
37365;SDS011;23239;51.504;7.456;2023-09-08T06:09:00;6.8;;;4.8;;
37365;SDS011;23239;51.504;7.456;2023-09-08T06:10:00;6.8;;;4.8;;
37365;SDS011;23239;51.504;7.456;2023-09-08T06:11:00;6.8;;;4.8;;
37365;SDS011;23239;51.504;7.456;2023-09-08T06:12:00;8.0;;;4.7;;